createdAt,value
2023-05-10T00:04:45.951Z,64.96
2023-05-10T00:09:48.951Z,64.56
2023-05-10T00:14:52.058Z,63.85
2023-05-10T00:19:55.572Z,62.28
2023-05-10T00:24:58.985Z,60.87
2023-05-10T00:30:02.120Z,59.26
2023-05-10T00:35:05.403Z,59.03
2023-05-10T00:40:08.804Z,59.16
2023-05-10T00:45:12.730Z,56.71
2023-05-10T00:50:17.032Z,57.45
2023-05-10T00:55:21.102Z,58.29
2023-05-10T01:00:24.104Z,59.50
2023-05-10T01:05:28.744Z,64.08
2023-05-10T01:10:32.369Z,66.82
2023-05-10T01:15:35.913Z,67.24
2023-05-10T01:20:42.988Z,67.12
2023-05-10T01:25:46.087Z,66.75
2023-05-10T01:30:59.751Z,67.45
2023-05-10T01:36:07.867Z,67.18
2023-05-10T01:41:16.192Z,67.27
2023-05-10T01:46:21.863Z,66.94
2023-05-10T01:51:26.801Z,67.08
2023-05-10T01:56:32.255Z,67.16
2023-05-10T02:01:38.047Z,67.55
2023-05-10T02:06:42.564Z,67.26
2023-05-10T02:11:45.564Z,67.23
2023-05-10T02:16:49.640Z,66.94
2023-05-10T02:21:53.214Z,66.46
2023-05-10T02:26:59.386Z,66.82
2023-05-10T02:32:03.362Z,66.82
2023-05-10T02:37:07.359Z,66.95
2023-05-10T02:42:14.953Z,66.49
2023-05-10T02:47:19.390Z,67.01
2023-05-10T02:52:30.488Z,65.54
2023-05-10T02:57:35.128Z,66.71
2023-05-10T03:02:38.166Z,66.31
2023-05-10T03:07:41.548Z,66.71
2023-05-10T03:12:50.702Z,66.73
2023-05-10T03:17:58.665Z,67.11
2023-05-10T03:23:05.985Z,66.79
2023-05-10T03:28:10.141Z,66.66
2023-05-10T03:33:14.480Z,64.84
2023-05-10T03:38:17.480Z,64.98
2023-05-10T03:43:20.586Z,64.36
2023-05-10T03:48:23.485Z,62.99
2023-05-10T03:53:26.695Z,62.24
2023-05-10T03:58:29.705Z,60.76
2023-05-10T04:03:32.778Z,55.51
2023-05-10T04:08:36.222Z,50.85
2023-05-10T04:13:39.736Z,46.17
2023-05-10T04:18:42.845Z,43.38
2023-05-10T04:23:46.052Z,40.69
2023-05-10T04:28:49.156Z,39.25
2023-05-10T04:33:52.670Z,37.76
2023-05-10T04:38:55.768Z,37.00
2023-05-10T04:43:58.789Z,36.01
2023-05-10T04:49:02.293Z,34.30
2023-05-10T04:54:06.774Z,33.39
2023-05-10T04:59:10.149Z,32.54
2023-05-10T05:04:13.041Z,31.03
2023-05-10T05:09:16.148Z,30.49
2023-05-10T05:14:19.151Z,30.50
2023-05-10T05:19:22.150Z,29.07
2023-05-10T05:24:25.459Z,27.73
2023-05-10T05:29:28.998Z,27.10
2023-05-10T05:34:32.085Z,27.19
2023-05-10T05:39:37.456Z,27.10
2023-05-10T05:44:40.751Z,26.36
2023-05-10T05:49:43.858Z,26.15
2023-05-10T05:54:46.863Z,25.54
2023-05-10T05:59:49.862Z,25.44
2023-05-10T06:04:53.071Z,24.57
2023-05-10T06:09:55.971Z,24.27
2023-05-10T06:14:58.871Z,24.12
2023-05-10T06:20:02.144Z,23.69
2023-05-10T06:25:05.808Z,23.32
2023-05-10T06:30:13.428Z,23.42
2023-05-10T06:35:16.935Z,23.03
2023-05-10T06:40:20.640Z,22.71
2023-05-10T06:45:23.749Z,22.32
2023-05-10T06:50:26.998Z,21.62
2023-05-10T06:55:30.484Z,21.29
2023-05-10T07:00:33.512Z,19.76
2023-05-10T07:05:36.804Z,19.17
2023-05-10T07:10:40.006Z,17.61
2023-05-10T07:15:43.619Z,17.26
2023-05-10T07:20:46.962Z,17.64
2023-05-10T07:25:50.950Z,17.81
2023-05-10T07:30:54.006Z,17.02
2023-05-10T07:35:57.005Z,17.08
2023-05-10T07:40:59.959Z,17.50
2023-05-10T07:46:03.120Z,17.81
2023-05-10T07:51:07.715Z,16.79
2023-05-10T07:56:28.524Z,16.86
2023-05-10T08:01:33.603Z,17.01
2023-05-10T08:06:36.682Z,16.16
2023-05-10T08:11:39.597Z,16.65
2023-05-10T08:16:42.583Z,16.97
2023-05-10T08:21:46.108Z,16.40
2023-05-10T08:26:49.533Z,17.38
2023-05-10T08:31:52.978Z,17.42
2023-05-10T08:36:56.033Z,17.45
2023-05-10T08:42:03.146Z,17.88
2023-05-10T08:47:10.843Z,18.13
2023-05-10T08:52:14.630Z,17.59
2023-05-10T08:57:18.390Z,18.07
2023-05-10T09:02:21.712Z,18.29
2023-05-10T09:07:25.009Z,18.71
2023-05-10T09:12:30.284Z,19.01
2023-05-10T09:17:35.014Z,19.17
2023-05-10T09:22:39.048Z,19.66
2023-05-10T09:27:43.203Z,19.62
2023-05-10T09:32:47.657Z,19.66
2023-05-10T09:37:52.449Z,20.26
2023-05-10T09:42:57.189Z,19.69
2023-05-10T09:48:01.993Z,19.84
2023-05-10T09:53:05.134Z,20.50
2023-05-10T09:58:12.021Z,21.10
2023-05-10T10:03:16.490Z,22.73
2023-05-10T10:08:19.592Z,23.37
2023-05-10T10:13:22.713Z,24.26
2023-05-10T10:18:28.414Z,24.37
2023-05-10T10:23:31.769Z,24.48
2023-05-10T10:28:37.747Z,24.75
2023-05-10T10:33:53.544Z,24.92
2023-05-10T10:39:00.868Z,24.92
2023-05-10T10:44:23.469Z,25.32
2023-05-10T10:49:26.620Z,25.23
2023-05-10T10:54:29.779Z,25.20
2023-05-10T10:59:32.932Z,25.39
2023-05-10T11:04:47.764Z,25.13
2023-05-10T11:09:51.133Z,25.43
2023-05-10T11:14:58.426Z,25.41
2023-05-10T11:20:08.695Z,25.13
2023-05-10T11:25:12.332Z,25.38
2023-05-10T11:30:16.586Z,24.75
2023-05-10T11:35:19.865Z,24.98
2023-05-10T11:40:24.920Z,24.93
2023-05-10T11:45:29.318Z,24.88
2023-05-10T11:50:32.707Z,25.13
2023-05-10T11:55:35.867Z,25.02
2023-05-10T12:00:39.178Z,24.47
2023-05-10T12:05:43.246Z,25.11
2023-05-10T12:10:46.409Z,25.05
2023-05-10T12:15:49.418Z,24.60
2023-05-10T12:20:55.793Z,24.13
2023-05-10T12:26:04.017Z,24.43
2023-05-10T12:31:07.643Z,24.77
2023-05-10T12:36:11.359Z,24.24
2023-05-10T12:41:16.143Z,24.60
2023-05-10T12:46:20.159Z,24.21
2023-05-10T12:51:24.059Z,24.26
2023-05-10T12:56:27.286Z,23.84
2023-05-10T13:01:30.324Z,23.52
2023-05-10T13:06:33.368Z,24.06
2023-05-10T13:11:36.378Z,23.48
2023-05-10T13:16:39.396Z,22.80
2023-05-10T13:21:42.683Z,22.52
2023-05-10T13:26:46.109Z,23.54
2023-05-10T13:31:50.666Z,23.51
2023-05-10T13:36:55.084Z,24.05
2023-05-10T13:41:58.085Z,23.96
2023-05-10T13:47:01.106Z,24.12
2023-05-10T13:52:08.202Z,24.03
2023-05-10T13:57:13.883Z,23.49
2023-05-10T14:02:17.268Z,23.35
2023-05-10T14:07:20.393Z,23.71
2023-05-10T14:12:23.576Z,23.46
2023-05-10T14:17:26.694Z,23.28
2023-05-10T14:22:30.214Z,23.40
2023-05-10T14:27:33.621Z,23.31
2023-05-10T14:32:37.981Z,23.26
2023-05-10T14:37:41.769Z,22.71
2023-05-10T14:42:45.188Z,23.04
2023-05-10T14:47:49.030Z,23.32
2023-05-10T14:52:52.307Z,22.72
2023-05-10T14:57:55.929Z,23.40
2023-05-10T15:02:59.082Z,23.78
2023-05-10T15:08:02.563Z,23.74
2023-05-10T15:13:06.284Z,24.09
2023-05-10T15:18:12.316Z,23.88
2023-05-10T15:23:15.344Z,24.36
2023-05-10T15:28:18.561Z,25.10
2023-05-10T15:33:22.286Z,24.81
2023-05-10T15:38:25.694Z,24.63
2023-05-10T15:43:28.945Z,24.79
2023-05-10T15:48:32.620Z,25.28
2023-05-10T15:53:36.442Z,25.27
2023-05-10T15:58:39.949Z,25.53
2023-05-10T16:03:43.366Z,25.87
2023-05-10T16:08:46.378Z,26.28
2023-05-10T16:13:49.477Z,25.71
2023-05-10T16:18:53.169Z,26.00
2023-05-10T16:23:56.813Z,26.38
2023-05-10T16:28:59.821Z,26.20
2023-05-10T16:34:03.341Z,26.57
2023-05-10T16:39:07.060Z,26.79
2023-05-10T16:44:11.393Z,26.92
2023-05-10T16:49:14.904Z,27.20
2023-05-10T16:54:19.050Z,27.42
2023-05-10T16:59:22.664Z,27.76
2023-05-10T17:04:25.777Z,27.88
2023-05-10T17:09:32.182Z,27.85
2023-05-10T17:14:36.002Z,27.96
2023-05-10T17:19:39.616Z,28.13
2023-05-10T17:24:45.351Z,28.41
2023-05-10T17:29:48.988Z,28.69
2023-05-10T17:34:52.395Z,28.88
2023-05-10T17:39:55.902Z,29.21
2023-05-10T17:44:59.932Z,29.61
2023-05-10T17:50:04.387Z,30.13
2023-05-10T17:55:09.139Z,30.00
2023-05-10T18:00:13.053Z,30.48
2023-05-10T18:05:16.985Z,30.55
2023-05-10T18:10:21.198Z,31.48
2023-05-10T18:15:26.255Z,31.98
2023-05-10T18:20:29.765Z,32.41
2023-05-10T18:25:33.899Z,32.33
2023-05-10T18:30:37.806Z,32.89
2023-05-10T18:35:41.448Z,33.99
2023-05-10T18:40:44.941Z,34.20
2023-05-10T18:45:49.056Z,34.53
2023-05-10T18:50:52.708Z,34.96
2023-05-10T18:55:57.970Z,35.10
2023-05-10T19:01:01.585Z,35.85
2023-05-10T19:06:05.182Z,36.20
2023-05-10T19:11:08.802Z,36.81
2023-05-10T19:16:15.216Z,37.30
2023-05-10T19:21:18.480Z,37.37
2023-05-10T19:26:23.386Z,37.98
2023-05-10T19:31:27.320Z,38.51
2023-05-10T19:36:32.004Z,38.74
2023-05-10T19:41:36.703Z,39.07
2023-05-10T19:46:40.485Z,39.22
2023-05-10T19:51:45.099Z,39.42
2023-05-10T19:56:48.824Z,39.84
2023-05-10T20:01:52.233Z,40.11
2023-05-10T20:06:56.169Z,41.20
2023-05-10T20:11:59.914Z,41.94
2023-05-10T20:17:03.738Z,42.84
2023-05-10T20:22:09.712Z,43.03
2023-05-10T20:27:18.147Z,41.45
2023-05-10T20:32:21.657Z,43.86
2023-05-10T20:37:25.312Z,45.71
2023-05-10T20:42:28.675Z,47.30
2023-05-10T20:47:32.942Z,47.58
2023-05-10T20:52:36.015Z,46.22
2023-05-10T20:57:39.921Z,45.60
2023-05-10T21:02:45.246Z,47.77
2023-05-10T21:07:49.600Z,46.55
2023-05-10T21:12:52.761Z,46.09
2023-05-10T21:17:56.000Z,46.03
2023-05-10T21:22:59.271Z,45.27
2023-05-10T21:28:02.344Z,45.87
2023-05-10T21:33:05.460Z,45.26
2023-05-10T21:38:09.803Z,45.79
2023-05-10T21:43:12.905Z,48.35
2023-05-10T21:48:15.976Z,50.33
2023-05-10T21:53:19.006Z,50.94
2023-05-10T21:58:22.547Z,52.39
2023-05-10T22:03:26.654Z,51.77
2023-05-10T22:08:29.955Z,53.42
2023-05-10T22:13:32.955Z,54.16
2023-05-10T22:18:36.738Z,58.88
2023-05-10T22:23:39.784Z,54.12
2023-05-10T22:28:42.886Z,56.84
2023-05-10T22:33:45.994Z,61.24
2023-05-10T22:38:48.997Z,62.73
2023-05-10T22:43:52.004Z,61.45
2023-05-10T22:48:55.452Z,61.91
2023-05-10T22:53:58.418Z,61.64
2023-05-10T22:59:01.534Z,60.76
2023-05-10T23:04:04.639Z,60.54
2023-05-10T23:09:08.248Z,60.28
2023-05-10T23:14:11.249Z,59.89
2023-05-10T23:19:14.093Z,59.24
2023-05-10T23:24:17.868Z,59.07
2023-05-10T23:29:20.771Z,58.07
2023-05-10T23:34:23.770Z,57.39
2023-05-10T23:39:27.254Z,57.44
2023-05-10T23:44:30.299Z,56.29
2023-05-10T23:49:33.303Z,56.44
2023-05-10T23:54:36.404Z,57.76
2023-05-10T23:59:39.329Z,58.24
